Karpinsk, Russia
Current Conditions -  °F | °C
As of 7:30 PM on Monday 22 Dec 2014 (Local Time) from USPP Reporting Station
Overcast Overcast  
Wind Chill: 22°   Ceiling: 4400
Heat Index: 30°   Visibility: 6mi
Dew Point: 27°   Wind: 9mph
Humidity: 86%   Direction: 150°SSE
Pressure: 29.53"   Gusts: NA
Location:  59.76°N, 60.01°E
Report Text: USPP 221430Z 15004MPS 9999 OVC044 M01/M03 Q1000 21290150 TEMPO-FZRA RMK QFE740/0986 SEV ICE INC
Loading
Personal Weather Stations






























Interactive Weather Map New forecast layout! Learn more

10-Day Weather Forecast

Advertisements
Track Severe Weather on mobile